SHH1545 TIST-MDSD
Flight info
| Callsign | SHH1545 |
|---|---|
| Flight time | 0h 50m |
| Altitude | 32000 |
| Route | PALCO7 PALCO RTE6 SJU RTE2 BOCCA DCT BQN B520 ANTEX DCT GOSUB GOSUB2H |
| Aircraft | E190/M-SDE3GILORVW/S |
Departure
| Time | 2026-04-22 03:34 |
|---|---|
| Airport | Cyril E. King Airport (TIST) |
Arrival
| Time | 2026-04-22 04:24 |
|---|---|
| Airport | Las Américas International Airport (MDSD) |
| Time | Latitude | Longitude | Altitude | Speed | Heading |
|---|---|---|---|---|---|
| 2026-04-22 03:11 | 18.33559 | -64.97250 | 26 ft | 0 kts | 178° |
| 2026-04-22 03:25 | 18.33561 | -64.97250 | 26 ft | 2 kts | 178° |
| 2026-04-22 03:26 | 18.33587 | -64.97251 | 28 ft | 4 kts | 182° |
| 2026-04-22 03:26 | 18.33614 | -64.97248 | 31 ft | 4 kts | 191° |
| 2026-04-22 03:26 | 18.33639 | -64.97240 | 29 ft | 4 kts | 214° |
| 2026-04-22 03:26 | 18.33653 | -64.97224 | 27 ft | 1 kts | 267° |
| 2026-04-22 03:27 | 18.33653 | -64.97219 | 31 ft | 0 kts | 267° |
| 2026-04-22 03:28 | 18.33652 | -64.97230 | 28 ft | 2 kts | 267° |
| 2026-04-22 03:29 | 18.33651 | -64.97252 | 29 ft | 4 kts | 267° |
| 2026-04-22 03:29 | 18.33650 | -64.97284 | 28 ft | 5 kts | 267° |
| 2026-04-22 03:29 | 18.33647 | -64.97326 | 26 ft | 6 kts | 264° |
| 2026-04-22 03:29 | 18.33641 | -64.97377 | 30 ft | 8 kts | 262° |
| 2026-04-22 03:30 | 18.33633 | -64.97437 | 26 ft | 9 kts | 262° |
| 2026-04-22 03:30 | 18.33624 | -64.97509 | 26 ft | 11 kts | 262° |
| 2026-04-22 03:30 | 18.33613 | -64.97591 | 28 ft | 12 kts | 262° |
| 2026-04-22 03:30 | 18.33606 | -64.97683 | 26 ft | 13 kts | 268° |
| 2026-04-22 03:31 | 18.33603 | -64.97784 | 26 ft | 14 kts | 267° |
| 2026-04-22 03:31 | 18.33597 | -64.97894 | 27 ft | 16 kts | 267° |
| 2026-04-22 03:31 | 18.33592 | -64.98010 | 26 ft | 15 kts | 267° |
| 2026-04-22 03:31 | 18.33586 | -64.98126 | 26 ft | 16 kts | 267° |
| 2026-04-22 03:32 | 18.33581 | -64.98241 | 26 ft | 13 kts | 267° |
| 2026-04-22 03:32 | 18.33611 | -64.98325 | 28 ft | 12 kts | 332° |
| 2026-04-22 03:32 | 18.33681 | -64.98316 | 28 ft | 9 kts | 44° |
| 2026-04-22 03:32 | 18.33690 | -64.98283 | 27 ft | 0 kts | 87° |
| 2026-04-22 03:33 | 18.33690 | -64.98276 | 26 ft | 7 kts | 86° |
| 2026-04-22 03:33 | 18.33702 | -64.97978 | 26 ft | 77 kts | 87° |
| 2026-04-22 03:33 | 18.33737 | -64.97168 | 26 ft | 142 kts | 87° |
| 2026-04-22 03:33 | 18.33788 | -64.96008 | 448 ft | 163 kts | 89° |
| 2026-04-22 03:34 | 18.33659 | -64.94805 | 1316 ft | 173 kts | 101° |
| 2026-04-22 03:34 | 18.33110 | -64.93573 | 1998 ft | 206 kts | 124° |
| 2026-04-22 03:34 | 18.31939 | -64.92488 | 2688 ft | 242 kts | 146° |
| 2026-04-22 03:34 | 18.30322 | -64.91794 | 3755 ft | 262 kts | 163° |
| 2026-04-22 03:35 | 18.28424 | -64.91534 | 4699 ft | 288 kts | 180° |
| 2026-04-22 03:35 | 18.26476 | -64.91970 | 5919 ft | 294 kts | 205° |
| 2026-04-22 03:35 | 18.24761 | -64.93207 | 7187 ft | 299 kts | 227° |
| 2026-04-22 03:35 | 18.23551 | -64.94938 | 8137 ft | 300 kts | 244° |
| 2026-04-22 03:36 | 18.22909 | -64.97019 | 9088 ft | 297 kts | 264° |
| 2026-04-22 03:36 | 18.22821 | -64.99153 | 10287 ft | 290 kts | 272° |
| 2026-04-22 03:36 | 18.22830 | -65.01305 | 11052 ft | 300 kts | 272° |
| 2026-04-22 03:36 | 18.22867 | -65.03546 | 11743 ft | 310 kts | 275° |
| 2026-04-22 03:37 | 18.23331 | -65.05809 | 12274 ft | 324 kts | 289° |
| 2026-04-22 03:37 | 18.24133 | -65.08086 | 12798 ft | 340 kts | 292° |
| 2026-04-22 03:37 | 18.25011 | -65.10435 | 13538 ft | 348 kts | 291° |
| 2026-04-22 03:37 | 18.25869 | -65.12808 | 14323 ft | 353 kts | 290° |
| 2026-04-22 03:38 | 18.26454 | -65.14447 | 14930 ft | 355 kts | 290° |
| 2026-04-22 03:38 | 18.27325 | -65.16892 | 15764 ft | 360 kts | 290° |
| 2026-04-22 03:38 | 18.28514 | -65.20193 | 16808 ft | 366 kts | 290° |
| 2026-04-22 03:38 | 18.29418 | -65.22719 | 17564 ft | 371 kts | 287° |
| 2026-04-22 03:39 | 18.30068 | -65.25368 | 18265 ft | 376 kts | 281° |
| 2026-04-22 03:39 | 18.30415 | -65.27157 | 18696 ft | 378 kts | 280° |
| 2026-04-22 03:39 | 18.31085 | -65.30789 | 19651 ft | 378 kts | 280° |
| 2026-04-22 03:39 | 18.31423 | -65.32585 | 20094 ft | 378 kts | 280° |
| 2026-04-22 03:40 | 18.31945 | -65.35305 | 20735 ft | 380 kts | 280° |
| 2026-04-22 03:40 | 18.32472 | -65.38037 | 21366 ft | 382 kts | 280° |
| 2026-04-22 03:40 | 18.33005 | -65.40780 | 21991 ft | 383 kts | 280° |
| 2026-04-22 03:40 | 18.33538 | -65.43534 | 22599 ft | 385 kts | 280° |
| 2026-04-22 03:41 | 18.34074 | -65.46307 | 23188 ft | 387 kts | 280° |
| 2026-04-22 03:41 | 18.34614 | -65.49092 | 23754 ft | 389 kts | 280° |
| 2026-04-22 03:41 | 18.35152 | -65.51884 | 24207 ft | 390 kts | 280° |
| 2026-04-22 03:41 | 18.35694 | -65.54688 | 24645 ft | 392 kts | 280° |
| 2026-04-22 03:42 | 18.36238 | -65.57513 | 25062 ft | 394 kts | 280° |
| 2026-04-22 03:42 | 18.36782 | -65.60341 | 25475 ft | 396 kts | 280° |
| 2026-04-22 03:42 | 18.37329 | -65.63187 | 25907 ft | 397 kts | 280° |
| 2026-04-22 03:42 | 18.37895 | -65.66036 | 26313 ft | 399 kts | 281° |
| 2026-04-22 03:43 | 18.38488 | -65.68896 | 26708 ft | 401 kts | 281° |
| 2026-04-22 03:43 | 18.39082 | -65.71766 | 27102 ft | 402 kts | 281° |
| 2026-04-22 03:43 | 18.39676 | -65.74650 | 27474 ft | 404 kts | 281° |
| 2026-04-22 03:43 | 18.40270 | -65.77556 | 27837 ft | 406 kts | 281° |
| 2026-04-22 03:44 | 18.40866 | -65.80467 | 28204 ft | 408 kts | 281° |
| 2026-04-22 03:44 | 18.41464 | -65.83395 | 28554 ft | 409 kts | 281° |
| 2026-04-22 03:44 | 18.42053 | -65.86296 | 28878 ft | 411 kts | 281° |
| 2026-04-22 03:44 | 18.42654 | -65.89243 | 29175 ft | 413 kts | 281° |
| 2026-04-22 03:45 | 18.43255 | -65.92202 | 29475 ft | 414 kts | 281° |
| 2026-04-22 03:45 | 18.43858 | -65.95170 | 29796 ft | 414 kts | 281° |
| 2026-04-22 03:45 | 18.44455 | -65.98135 | 30188 ft | 412 kts | 279° |
| 2026-04-22 03:45 | 18.44735 | -66.01128 | 30501 ft | 410 kts | 273° |
| 2026-04-22 03:46 | 18.44893 | -66.04127 | 30820 ft | 409 kts | 273° |
| 2026-04-22 03:46 | 18.45040 | -66.07112 | 31098 ft | 408 kts | 273° |
| 2026-04-22 03:46 | 18.45184 | -66.10089 | 31397 ft | 407 kts | 273° |
| 2026-04-22 03:46 | 18.45330 | -66.13061 | 31692 ft | 406 kts | 273° |
| 2026-04-22 03:47 | 18.45475 | -66.16025 | 31981 ft | 405 kts | 273° |
| 2026-04-22 03:47 | 18.45620 | -66.18983 | 32155 ft | 408 kts | 273° |
| 2026-04-22 03:47 | 18.45915 | -66.25022 | 32093 ft | 416 kts | 273° |
| 2026-04-22 03:48 | 18.46209 | -66.31115 | 32065 ft | 416 kts | 272° |
| 2026-04-22 03:48 | 18.46502 | -66.37212 | 32071 ft | 417 kts | 272° |
| 2026-04-22 03:49 | 18.46793 | -66.43306 | 32076 ft | 416 kts | 272° |
| 2026-04-22 03:49 | 18.47081 | -66.49363 | 32078 ft | 416 kts | 272° |
| 2026-04-22 03:50 | 18.47368 | -66.55459 | 32073 ft | 416 kts | 272° |
| 2026-04-22 03:50 | 18.47654 | -66.61558 | 32073 ft | 417 kts | 272° |
| 2026-04-22 03:51 | 18.47930 | -66.67654 | 32065 ft | 417 kts | 272° |
| 2026-04-22 03:51 | 18.48206 | -66.73755 | 32065 ft | 417 kts | 272° |
| 2026-04-22 03:52 | 18.48479 | -66.79858 | 32060 ft | 416 kts | 272° |
| 2026-04-22 03:52 | 18.48751 | -66.85963 | 32069 ft | 417 kts | 272° |
| 2026-04-22 03:53 | 18.49018 | -66.92018 | 32064 ft | 416 kts | 272° |
| 2026-04-22 03:53 | 18.49287 | -66.98115 | 32068 ft | 417 kts | 272° |
| 2026-04-22 03:54 | 18.49553 | -67.04219 | 32070 ft | 416 kts | 272° |
| 2026-04-22 03:54 | 18.49816 | -67.10312 | 32072 ft | 416 kts | 272° |
| 2026-04-22 03:55 | 18.49812 | -67.16412 | 32079 ft | 416 kts | 268° |
| 2026-04-22 03:55 | 18.49625 | -67.22510 | 32081 ft | 416 kts | 269° |
| 2026-04-22 03:56 | 18.49490 | -67.28616 | 32067 ft | 416 kts | 269° |
| 2026-04-22 03:56 | 18.49365 | -67.34711 | 32061 ft | 416 kts | 269° |
| 2026-04-22 03:57 | 18.49241 | -67.40774 | 32056 ft | 416 kts | 269° |
| 2026-04-22 03:57 | 18.49115 | -67.46867 | 32060 ft | 416 kts | 269° |
| 2026-04-22 03:58 | 18.48986 | -67.52971 | 32048 ft | 416 kts | 269° |
| 2026-04-22 03:58 | 18.48855 | -67.59068 | 32046 ft | 416 kts | 269° |
| 2026-04-22 03:59 | 18.48722 | -67.65162 | 32045 ft | 416 kts | 269° |
| 2026-04-22 03:59 | 18.48588 | -67.71254 | 32059 ft | 416 kts | 269° |
| 2026-04-22 04:00 | 18.48451 | -67.77347 | 32050 ft | 416 kts | 269° |
| 2026-04-22 04:00 | 18.48313 | -67.83433 | 32050 ft | 416 kts | 269° |
| 2026-04-22 04:01 | 18.48172 | -67.89523 | 31863 ft | 413 kts | 269° |
| 2026-04-22 04:01 | 18.48102 | -67.92517 | 31576 ft | 403 kts | 269° |
| 2026-04-22 04:01 | 18.48033 | -67.95447 | 31150 ft | 401 kts | 269° |
| 2026-04-22 04:02 | 18.47965 | -67.98357 | 30582 ft | 402 kts | 269° |
| 2026-04-22 04:02 | 18.47895 | -68.01304 | 29963 ft | 402 kts | 269° |
| 2026-04-22 04:02 | 18.47834 | -68.04228 | 29448 ft | 392 kts | 269° |
| 2026-04-22 04:02 | 18.47776 | -68.07061 | 28917 ft | 383 kts | 269° |
| 2026-04-22 04:03 | 18.47719 | -68.09825 | 28456 ft | 373 kts | 269° |
| 2026-04-22 04:03 | 18.47663 | -68.12529 | 27956 ft | 365 kts | 269° |
| 2026-04-22 04:03 | 18.47607 | -68.15171 | 27466 ft | 358 kts | 269° |
| 2026-04-22 04:03 | 18.47551 | -68.17768 | 27039 ft | 350 kts | 269° |
| 2026-04-22 04:04 | 18.47497 | -68.20315 | 26540 ft | 346 kts | 269° |
| 2026-04-22 04:04 | 18.47443 | -68.22821 | 26134 ft | 339 kts | 269° |
| 2026-04-22 04:04 | 18.47389 | -68.25291 | 25651 ft | 335 kts | 269° |
| 2026-04-22 04:04 | 18.47336 | -68.27729 | 25247 ft | 330 kts | 269° |
| 2026-04-22 04:05 | 18.47283 | -68.30139 | 24788 ft | 328 kts | 269° |
| 2026-04-22 04:05 | 18.47229 | -68.32537 | 24384 ft | 327 kts | 269° |
| 2026-04-22 04:05 | 18.47176 | -68.34940 | 23928 ft | 328 kts | 268° |
| 2026-04-22 04:05 | 18.47122 | -68.37341 | 23478 ft | 328 kts | 268° |
| 2026-04-22 04:06 | 18.47068 | -68.39742 | 23076 ft | 326 kts | 268° |
| 2026-04-22 04:06 | 18.47014 | -68.42096 | 22626 ft | 326 kts | 268° |
| 2026-04-22 04:06 | 18.46960 | -68.44482 | 22195 ft | 326 kts | 268° |
| 2026-04-22 04:06 | 18.46905 | -68.46870 | 21742 ft | 326 kts | 268° |
| 2026-04-22 04:07 | 18.46850 | -68.49257 | 21329 ft | 325 kts | 268° |
| 2026-04-22 04:07 | 18.46795 | -68.51629 | 20901 ft | 324 kts | 268° |
| 2026-04-22 04:07 | 18.46739 | -68.54004 | 20461 ft | 324 kts | 268° |
| 2026-04-22 04:07 | 18.46685 | -68.56368 | 20043 ft | 322 kts | 268° |
| 2026-04-22 04:08 | 18.46630 | -68.58722 | 19626 ft | 321 kts | 268° |
| 2026-04-22 04:08 | 18.46573 | -68.61075 | 19201 ft | 321 kts | 268° |
| 2026-04-22 04:08 | 18.46515 | -68.63426 | 18783 ft | 320 kts | 268° |
| 2026-04-22 04:08 | 18.46459 | -68.65768 | 18348 ft | 320 kts | 269° |
| 2026-04-22 04:09 | 18.46404 | -68.68104 | 17923 ft | 317 kts | 269° |
| 2026-04-22 04:09 | 18.46350 | -68.70388 | 17527 ft | 315 kts | 269° |
| 2026-04-22 04:09 | 18.46293 | -68.72721 | 17101 ft | 314 kts | 269° |
| 2026-04-22 04:09 | 18.46238 | -68.74987 | 16698 ft | 314 kts | 269° |
| 2026-04-22 04:10 | 18.46182 | -68.77287 | 16299 ft | 313 kts | 269° |
| 2026-04-22 04:10 | 18.46015 | -68.79561 | 15990 ft | 311 kts | 261° |
| 2026-04-22 04:10 | 18.45543 | -68.81788 | 15633 ft | 312 kts | 257° |
| 2026-04-22 04:10 | 18.44992 | -68.83994 | 15358 ft | 311 kts | 256° |
| 2026-04-22 04:11 | 18.44444 | -68.86193 | 15073 ft | 311 kts | 257° |
| 2026-04-22 04:11 | 18.43910 | -68.88397 | 14794 ft | 310 kts | 257° |
| 2026-04-22 04:11 | 18.43382 | -68.90596 | 14504 ft | 308 kts | 257° |
| 2026-04-22 04:11 | 18.42865 | -68.92759 | 14204 ft | 302 kts | 257° |
| 2026-04-22 04:12 | 18.42360 | -68.94885 | 13915 ft | 296 kts | 257° |
| 2026-04-22 04:12 | 18.41860 | -68.96970 | 13611 ft | 291 kts | 257° |
| 2026-04-22 04:12 | 18.41369 | -68.99014 | 13318 ft | 285 kts | 257° |
| 2026-04-22 04:12 | 18.40885 | -69.01021 | 13003 ft | 281 kts | 257° |
| 2026-04-22 04:13 | 18.40410 | -69.02999 | 12713 ft | 277 kts | 257° |
| 2026-04-22 04:13 | 18.39937 | -69.04960 | 12432 ft | 276 kts | 257° |
| 2026-04-22 04:13 | 18.39467 | -69.06920 | 12135 ft | 277 kts | 257° |
| 2026-04-22 04:13 | 18.38992 | -69.08887 | 11823 ft | 277 kts | 257° |
| 2026-04-22 04:14 | 18.38519 | -69.10851 | 11539 ft | 276 kts | 257° |
| 2026-04-22 04:14 | 18.38047 | -69.12807 | 11253 ft | 275 kts | 257° |
| 2026-04-22 04:14 | 18.37577 | -69.14759 | 10958 ft | 275 kts | 257° |
| 2026-04-22 04:14 | 18.37107 | -69.16707 | 10667 ft | 274 kts | 257° |
| 2026-04-22 04:15 | 18.36639 | -69.18646 | 10364 ft | 272 kts | 257° |
| 2026-04-22 04:15 | 18.36173 | -69.20579 | 10013 ft | 272 kts | 257° |
| 2026-04-22 04:15 | 18.35719 | -69.22487 | 9727 ft | 268 kts | 257° |
| 2026-04-22 04:15 | 18.35270 | -69.24391 | 9340 ft | 268 kts | 257° |
| 2026-04-22 04:16 | 18.34827 | -69.26266 | 8984 ft | 266 kts | 257° |
| 2026-04-22 04:16 | 18.33934 | -69.30041 | 8311 ft | 263 kts | 257° |
| 2026-04-22 04:16 | 18.33490 | -69.31914 | 7935 ft | 264 kts | 257° |
| 2026-04-22 04:17 | 18.33043 | -69.33794 | 7556 ft | 265 kts | 257° |
| 2026-04-22 04:17 | 18.32599 | -69.35664 | 7275 ft | 262 kts | 257° |
| 2026-04-22 04:17 | 18.32154 | -69.37537 | 6867 ft | 265 kts | 257° |
| 2026-04-22 04:17 | 18.31708 | -69.39416 | 6555 ft | 264 kts | 257° |
| 2026-04-22 04:18 | 18.31262 | -69.41289 | 6177 ft | 264 kts | 257° |
| 2026-04-22 04:18 | 18.30817 | -69.43159 | 5847 ft | 263 kts | 257° |
| 2026-04-22 04:18 | 18.30373 | -69.45020 | 5489 ft | 263 kts | 257° |
| 2026-04-22 04:18 | 18.29935 | -69.46863 | 5153 ft | 263 kts | 257° |
| 2026-04-22 04:19 | 18.29490 | -69.48734 | 4809 ft | 263 kts | 257° |
| 2026-04-22 04:19 | 18.29045 | -69.50602 | 4419 ft | 265 kts | 257° |
| 2026-04-22 04:19 | 18.28599 | -69.52472 | 4134 ft | 262 kts | 257° |
| 2026-04-22 04:19 | 18.28077 | -69.54317 | 3746 ft | 263 kts | 251° |
| 2026-04-22 04:20 | 18.27424 | -69.56121 | 3398 ft | 263 kts | 249° |
| 2026-04-22 04:20 | 18.26781 | -69.57918 | 3120 ft | 260 kts | 254° |
| 2026-04-22 04:20 | 18.26749 | -69.59729 | 3092 ft | 236 kts | 291° |
| 2026-04-22 04:20 | 18.27595 | -69.61094 | 2869 ft | 221 kts | 323° |
| 2026-04-22 04:21 | 18.28975 | -69.61790 | 2391 ft | 219 kts | 345° |
| 2026-04-22 04:21 | 18.30393 | -69.62248 | 2245 ft | 208 kts | 344° |
| 2026-04-22 04:21 | 18.31731 | -69.62724 | 2040 ft | 198 kts | 342° |
| 2026-04-22 04:21 | 18.32986 | -69.63210 | 1869 ft | 184 kts | 341° |
| 2026-04-22 04:22 | 18.34150 | -69.63646 | 1600 ft | 172 kts | 342° |
| 2026-04-22 04:22 | 18.35240 | -69.64042 | 1338 ft | 159 kts | 342° |
| 2026-04-22 04:22 | 18.36250 | -69.64413 | 1097 ft | 148 kts | 342° |
| 2026-04-22 04:22 | 18.37191 | -69.64760 | 836 ft | 140 kts | 341° |
| 2026-04-22 04:23 | 18.38104 | -69.65099 | 575 ft | 138 kts | 342° |
| 2026-04-22 04:23 | 18.39036 | -69.65453 | 398 ft | 145 kts | 341° |
| 2026-04-22 04:23 | 18.39988 | -69.65826 | 385 ft | 145 kts | 342° |
| 2026-04-22 04:23 | 18.40938 | -69.66172 | 248 ft | 143 kts | 344° |
| 2026-04-22 04:24 | 18.41863 | -69.66498 | 92 ft | 138 kts | 344° |
| 2026-04-22 04:24 | 18.42684 | -69.66780 | 68 ft | 103 kts | 339° |
| 2026-04-22 04:24 | 18.43218 | -69.66979 | 66 ft | 67 kts | 340° |
| 2026-04-22 04:24 | 18.43586 | -69.67123 | 63 ft | 42 kts | 328° |
| 2026-04-22 04:25 | 18.43595 | -69.67271 | 67 ft | 18 kts | 227° |
| 2026-04-22 04:25 | 18.43501 | -69.67368 | 63 ft | 21 kts | 225° |
| 2026-04-22 04:25 | 18.43394 | -69.67479 | 60 ft | 18 kts | 225° |
| 2026-04-22 04:25 | 18.43359 | -69.67536 | 60 ft | 2 kts | 315° |
| 2026-04-22 04:26 | 18.43377 | -69.67540 | 61 ft | 3 kts | 357° |
| 2026-04-22 04:26 | 18.43409 | -69.67529 | 65 ft | 6 kts | 18° |
| 2026-04-22 04:26 | 18.43453 | -69.67529 | 63 ft | 6 kts | 342° |
| 2026-04-22 04:26 | 18.43495 | -69.67545 | 64 ft | 7 kts | 340° |
| 2026-04-22 04:27 | 18.43540 | -69.67564 | 64 ft | 8 kts | 336° |
| 2026-04-22 04:27 | 18.43572 | -69.67610 | 63 ft | 6 kts | 295° |
| 2026-04-22 04:27 | 18.43587 | -69.67644 | 59 ft | 4 kts | 296° |
| 2026-04-22 04:27 | 18.43601 | -69.67674 | 65 ft | 2 kts | 294° |
| 2026-04-22 04:28 | 18.43604 | -69.67681 | 66 ft | 0 kts | 294° |